Time;durP1;ratioP1;P1;durP2;ratioP2;P2;SDS_P1;SDS_P2;PMS_P1;PMS_P2;Temp;Humidity;BMP_temperature;BMP_pressure;BME280_temperature;BME280_humidity;BME280_pressure;Samples;Min_cycle;Max_cycle;Signal;HPM_P1;HPM_P2
2023/12/04 00:01:33;;;;;;;11.18;6.70;;;5.20;83.90;;;;;;4266192;27;20039;-57
2023/12/04 00:03:35;;;;;;;9.93;6.55;;;5.30;83.00;;;;;;4265825;27;20050;-58
2023/12/04 00:05:43;;;;;;;8.45;5.97;;;5.30;84.20;;;;;;4266097;27;20095;-61
2023/12/04 00:07:45;;;;;;;8.10;5.32;;;5.30;82.90;;;;;;4265943;27;20042;-58
2023/12/04 00:09:47;;;;;;;10.80;5.72;;;5.30;83.40;;;;;;4266138;27;20053;-57
2023/12/04 00:11:49;;;;;;;8.70;5.93;;;5.30;83.20;;;;;;4267055;27;20052;-57
2023/12/04 00:13:53;;;;;;;9.55;5.85;;;5.30;83.20;;;;;;4266785;27;20043;-57
2023/12/04 00:15:55;;;;;;;9.95;5.80;;;5.40;82.60;;;;;;4267554;27;20042;-57
2023/12/04 00:17:57;;;;;;;9.00;5.78;;;5.40;82.90;;;;;;4267259;27;20054;-58
2023/12/04 00:20:00;;;;;;;7.32;5.13;;;5.50;83.10;;;;;;4266072;27;20043;-59
2023/12/04 00:22:02;;;;;;;8.43;5.38;;;5.50;83.00;;;;;;4266640;27;20047;-57
2023/12/04 00:24:04;;;;;;;7.13;5.10;;;5.40;81.80;;;;;;4266280;27;20057;-57
2023/12/04 00:26:07;;;;;;;8.98;5.30;;;5.40;81.90;;;;;;4267018;27;20422;-60
2023/12/04 00:28:09;;;;;;;8.35;5.00;;;5.50;83.40;;;;;;4265925;27;20147;-55
2023/12/04 00:30:15;;;;;;;9.25;5.63;;;5.50;83.40;;;;;;4264978;27;20069;-57
2023/12/04 00:32:17;;;;;;;8.88;5.68;;;5.50;83.30;;;;;;4246894;27;20039;-62
2023/12/04 00:34:19;;;;;;;7.72;5.68;;;5.50;84.00;;;;;;4265659;27;20077;-58
2023/12/04 00:36:21;;;;;;;8.63;5.68;;;5.40;82.40;;;;;;4267367;27;20103;-58
2023/12/04 00:38:23;;;;;;;7.88;4.90;;;5.40;82.70;;;;;;4266132;27;20047;-57
2023/12/04 00:40:25;;;;;;;7.95;5.53;;;5.50;84.80;;;;;;4266056;27;20039;-57
2023/12/04 00:42:28;;;;;;;9.65;5.78;;;5.50;84.10;;;;;;4266333;27;20512;-60
2023/12/04 00:44:30;;;;;;;7.65;5.45;;;5.50;83.90;;;;;;4265608;27;20478;-58
2023/12/04 00:46:35;;;;;;;9.95;6.32;;;5.40;83.80;;;;;;4265967;27;20462;-58
2023/12/04 00:48:37;;;;;;;8.00;5.53;;;5.40;83.70;;;;;;4265787;27;20517;-59
2023/12/04 00:50:41;;;;;;;7.63;5.72;;;5.50;84.40;;;;;;4265645;27;20047;-57
2023/12/04 00:52:43;;;;;;;8.52;5.50;;;5.60;83.80;;;;;;4266246;27;20047;-57
2023/12/04 00:54:45;;;;;;;17.30;5.60;;;5.60;84.40;;;;;;4247695;27;20054;-57
2023/12/04 00:56:48;;;;;;;8.80;5.68;;;5.60;83.00;;;;;;4265422;27;20082;-58
2023/12/04 00:58:50;;;;;;;8.25;5.35;;;5.70;84.10;;;;;;4265288;27;20059;-57
2023/12/04 01:00:52;;;;;;;9.38;5.93;;;5.60;83.70;;;;;;4246581;28;20573;-58
2023/12/04 01:02:56;;;;;;;9.10;5.95;;;5.60;83.10;;;;;;4264966;27;20062;-57
2023/12/04 01:04:58;;;;;;;8.13;5.20;;;5.60;82.90;;;;;;4265547;27;20046;-58
2023/12/04 01:07:00;;;;;;;8.48;5.45;;;5.70;85.50;;;;;;4265767;27;20039;-58
2023/12/04 01:09:03;;;;;;;8.13;5.50;;;5.60;84.40;;;;;;4265246;27;20046;-55
2023/12/04 01:11:05;;;;;;;7.60;5.47;;;5.70;85.30;;;;;;4265211;27;20428;-56
2023/12/04 01:13:07;;;;;;;8.13;5.20;;;5.70;83.70;;;;;;4264844;27;20077;-59
2023/12/04 01:15:10;;;;;;;7.25;5.18;;;5.70;84.10;;;;;;4267264;27;20519;-55
2023/12/04 01:17:12;;;;;;;7.53;5.18;;;5.70;84.90;;;;;;4267195;27;20042;-55
2023/12/04 01:19:15;;;;;;;8.95;5.40;;;5.70;85.20;;;;;;4267580;27;20074;-55
2023/12/04 01:21:18;;;;;;;6.17;5.17;;;5.70;84.70;;;;;;4248271;27;20047;-58
2023/12/04 01:23:20;;;;;;;7.35;5.18;;;5.70;85.50;;;;;;4266598;27;20085;-58
2023/12/04 01:25:22;;;;;;;8.30;5.50;;;5.70;84.30;;;;;;4266078;27;20065;-57
2023/12/04 01:27:24;;;;;;;7.35;4.78;;;5.80;84.30;;;;;;4265203;27;20053;-58
2023/12/04 01:29:26;;;;;;;7.57;4.95;;;5.80;84.80;;;;;;4265125;27;20078;-58
2023/12/04 01:31:28;;;;;;;6.38;4.70;;;5.80;84.00;;;;;;4267039;27;20049;-58
2023/12/04 01:33:31;;;;;;;9.70;5.50;;;5.70;83.40;;;;;;4269821;27;20043;-64
2023/12/04 01:35:35;;;;;;;7.03;4.90;;;5.70;83.40;;;;;;4268458;27;20158;-57
2023/12/04 01:37:39;;;;;;;7.25;5.05;;;5.70;84.00;;;;;;4268672;27;20046;-54
2023/12/04 01:39:41;;;;;;;6.55;4.68;;;5.70;84.10;;;;;;4268642;27;20163;-58
2023/12/04 01:41:47;;;;;;;6.50;4.53;;;5.70;83.80;;;;;;4250751;27;20053;-58
2023/12/04 01:43:49;;;;;;;7.15;5.13;;;5.80;84.70;;;;;;4269247;27;20492;-54
2023/12/04 01:45:53;;;;;;;6.22;4.05;;;5.80;83.60;;;;;;4269778;27;20460;-55
2023/12/04 01:47:55;;;;;;;10.27;5.93;;;5.90;84.60;;;;;;4269394;27;20047;-56
2023/12/04 01:49:58;;;;;;;7.40;5.05;;;5.90;84.00;;;;;;4269758;27;20058;-55
2023/12/04 01:52:02;;;;;;;6.10;4.43;;;5.80;83.60;;;;;;4270976;27;20047;-55
2023/12/04 01:54:06;;;;;;;7.47;4.95;;;5.80;85.10;;;;;;4274537;27;20055;-55
2023/12/04 01:56:09;;;;;;;6.85;4.72;;;5.80;85.40;;;;;;4273284;27;20095;-55
2023/12/04 01:58:12;;;;;;;6.57;4.68;;;5.80;85.00;;;;;;4273667;27;20394;-57
2023/12/04 02:00:14;;;;;;;6.78;5.00;;;5.80;84.60;;;;;;4275645;27;20042;-55
2023/12/04 02:02:16;;;;;;;7.05;5.20;;;5.80;83.70;;;;;;4269939;27;20050;-55
2023/12/04 02:04:19;;;;;;;6.53;4.90;;;5.90;84.10;;;;;;4268700;27;20118;-57
2023/12/04 02:06:21;;;;;;;6.47;4.65;;;5.80;83.90;;;;;;4267644;27;20061;-55
2023/12/04 02:08:25;;;;;;;6.53;4.63;;;5.80;84.70;;;;;;4267899;27;20050;-55
2023/12/04 02:10:28;;;;;;;11.02;5.28;;;5.90;84.30;;;;;;4267822;27;20049;-56
2023/12/04 02:12:31;;;;;;;7.60;5.10;;;5.80;83.20;;;;;;4249070;27;20409;-54
2023/12/04 02:14:33;;;;;;;6.32;4.65;;;5.80;85.00;;;;;;4266682;27;20212;-54
2023/12/04 02:16:39;;;;;;;8.77;4.93;;;5.90;84.70;;;;;;4248382;27;20047;-58
2023/12/04 02:18:43;;;;;;;8.32;5.40;;;5.90;84.80;;;;;;4267085;27;20054;-55
2023/12/04 02:20:45;;;;;;;7.40;5.13;;;5.80;84.40;;;;;;4266345;27;20050;-57
2023/12/04 02:22:48;;;;;;;6.97;4.70;;;5.90;85.10;;;;;;4266701;27;20050;-57
2023/12/04 02:24:51;;;;;;;6.70;4.53;;;6.00;84.60;;;;;;4266525;27;20066;-63
2023/12/04 02:26:59;;;;;;;5.97;4.53;;;6.00;84.30;;;;;;4266871;27;20468;-57
2023/12/04 02:29:07;;;;;;;8.45;5.63;;;6.00;84.70;;;;;;4266612;27;20047;-58
2023/12/04 02:31:11;;;;;;;9.68;5.57;;;5.90;84.50;;;;;;4267164;27;20070;-55
2023/12/04 02:33:14;;;;;;;7.68;4.88;;;5.90;84.60;;;;;;4270175;27;20039;-56
2023/12/04 02:35:20;;;;;;;7.20;4.85;;;5.90;85.60;;;;;;4269703;27;20467;-57
2023/12/04 02:37:23;;;;;;;8.75;4.80;;;5.90;85.30;;;;;;4267611;27;20073;-57
2023/12/04 02:39:25;;;;;;;7.18;4.55;;;6.00;86.60;;;;;;4267129;27;20591;-57
2023/12/04 02:41:29;;;;;;;8.38;5.50;;;6.00;86.90;;;;;;4267131;27;20480;-58
2023/12/04 02:43:33;;;;;;;8.13;5.32;;;6.00;86.30;;;;;;4268756;27;20046;-58
2023/12/04 02:45:37;;;;;;;8.20;5.07;;;6.00;84.30;;;;;;4267483;27;20046;-58
2023/12/04 02:47:39;;;;;;;8.02;5.20;;;5.90;85.30;;;;;;4268225;27;20143;-58
2023/12/04 02:49:41;;;;;;;6.72;4.88;;;6.00;85.30;;;;;;4268026;27;20095;-57
2023/12/04 02:51:45;;;;;;;5.00;3.75;;;5.90;84.90;;;;;;4268097;27;20043;-58
2023/12/04 02:53:49;;;;;;;8.38;5.38;;;5.90;84.80;;;;;;4267952;27;20055;-57
2023/12/04 02:55:51;;;;;;;8.45;5.70;;;5.80;85.50;;;;;;4267624;27;20059;-63
2023/12/04 02:57:54;;;;;;;8.02;5.45;;;5.80;85.80;;;;;;4267709;27;20053;-58
2023/12/04 02:59:56;;;;;;;7.38;4.90;;;5.80;85.00;;;;;;4267695;27;20074;-56
2023/12/04 03:01:58;;;;;;;6.97;4.55;;;5.70;85.80;;;;;;4268961;27;20050;-56
2023/12/04 03:04:00;;;;;;;7.72;4.70;;;5.70;85.90;;;;;;4267498;27;20133;-55
2023/12/04 03:06:03;;;;;;;6.65;4.68;;;5.80;86.20;;;;;;4268130;27;20043;-55
2023/12/04 03:08:05;;;;;;;7.70;4.80;;;5.90;86.80;;;;;;4267929;27;20070;-55
2023/12/04 03:10:08;;;;;;;6.72;5.03;;;5.80;86.30;;;;;;4267405;27;20552;-56
2023/12/04 03:12:11;;;;;;;7.47;4.50;;;5.90;86.00;;;;;;4268722;27;20095;-54
2023/12/04 03:14:14;;;;;;;6.00;4.72;;;5.90;86.00;;;;;;4269858;27;20486;-55
2023/12/04 03:16:17;;;;;;;7.07;4.82;;;6.00;85.60;;;;;;4269255;27;20052;-55
2023/12/04 03:18:20;;;;;;;7.90;5.10;;;6.00;85.90;;;;;;4269941;27;20455;-55
2023/12/04 03:20:23;;;;;;;7.28;4.93;;;6.00;85.30;;;;;;4268836;27;20465;-55
2023/12/04 03:22:26;;;;;;;6.85;4.38;;;5.90;85.70;;;;;;4267728;27;20067;-56
2023/12/04 03:24:28;;;;;;;7.45;5.05;;;5.90;85.60;;;;;;4268430;27;20047;-56
2023/12/04 03:26:31;;;;;;;5.30;4.35;;;6.00;86.20;;;;;;4267214;27;20042;-57
2023/12/04 03:28:33;;;;;;;7.93;4.22;;;6.00;86.20;;;;;;4266770;27;20474;-57
2023/12/04 03:30:37;;;;;;;8.50;5.32;;;6.00;87.00;;;;;;4266665;27;20062;-58
2023/12/04 03:32:39;;;;;;;7.10;4.97;;;6.00;86.90;;;;;;4266360;27;20050;-57
2023/12/04 03:34:41;;;;;;;6.22;4.70;;;6.00;87.80;;;;;;4266981;27;20039;-57
2023/12/04 03:36:43;;;;;;;7.07;4.60;;;6.00;86.70;;;;;;4266579;27;20414;-58
2023/12/04 03:38:45;;;;;;;7.32;4.43;;;6.00;87.20;;;;;;4267899;27;20039;-58
2023/12/04 03:40:47;;;;;;;6.53;4.20;;;6.00;88.20;;;;;;4268202;27;20099;-57
2023/12/04 03:42:49;;;;;;;5.47;3.75;;;6.00;88.40;;;;;;4269014;27;20099;-64
2023/12/04 03:44:51;;;;;;;6.38;4.47;;;6.00;87.60;;;;;;4270395;27;20042;-58
2023/12/04 03:46:55;;;;;;;6.38;4.25;;;6.00;87.70;;;;;;4269746;27;20067;-58
2023/12/04 03:49:00;;;;;;;6.30;4.45;;;6.00;88.60;;;;;;4267332;27;20054;-58
2023/12/04 03:51:02;;;;;;;6.40;4.55;;;6.00;88.80;;;;;;4271152;27;20051;-57
2023/12/04 03:53:04;;;;;;;6.90;4.60;;;6.00;88.70;;;;;;4272631;27;20071;-57
2023/12/04 03:55:09;;;;;;;6.20;4.53;;;6.00;89.30;;;;;;4251146;27;20051;-56
2023/12/04 03:57:11;;;;;;;6.55;4.45;;;6.00;90.50;;;;;;4269831;27;20057;-57
2023/12/04 03:59:13;;;;;;;7.18;4.60;;;6.00;90.70;;;;;;4270196;27;20069;-56
2023/12/04 04:01:15;;;;;;;7.03;4.57;;;5.90;91.10;;;;;;4270040;27;20130;-63
2023/12/04 04:03:18;;;;;;;6.60;4.68;;;5.90;92.00;;;;;;4268846;27;20100;-56
2023/12/04 04:05:20;;;;;;;6.38;4.45;;;5.90;91.60;;;;;;4268350;27;20465;-60
2023/12/04 04:07:23;;;;;;;6.32;4.75;;;5.90;92.30;;;;;;4249329;27;20043;-57
2023/12/04 04:09:25;;;;;;;7.95;4.72;;;5.90;92.40;;;;;;4267121;27;20497;-55
2023/12/04 04:11:27;;;;;;;6.70;4.60;;;5.90;92.50;;;;;;4266902;27;20050;-54
2023/12/04 04:13:29;;;;;;;6.45;4.65;;;6.00;92.30;;;;;;4267640;27;20050;-58
2023/12/04 04:15:32;;;;;;;9.73;4.70;;;6.00;92.30;;;;;;4267448;27;20051;-56
2023/12/04 04:17:34;;;;;;;6.65;4.40;;;5.90;91.80;;;;;;4250743;27;20478;-56
2023/12/04 04:19:38;;;;;;;6.47;4.47;;;5.90;93.00;;;;;;4268232;27;20095;-58
2023/12/04 04:21:40;;;;;;;5.60;4.20;;;5.90;92.70;;;;;;4270028;27;20091;-57
2023/12/04 04:23:43;;;;;;;6.72;4.63;;;5.90;93.10;;;;;;4269005;27;20046;-58
2023/12/04 04:25:45;;;;;;;7.00;4.60;;;5.90;92.50;;;;;;4266382;27;20449;-61
2023/12/04 04:27:47;;;;;;;7.28;4.78;;;5.90;93.20;;;;;;4265897;27;20053;-57
2023/12/04 04:29:49;;;;;;;6.15;4.50;;;5.80;93.60;;;;;;4268848;27;20046;-57
2023/12/04 04:31:51;;;;;;;5.88;4.57;;;5.80;93.90;;;;;;4252548;27;20043;-57
2023/12/04 04:33:53;;;;;;;5.88;4.35;;;5.80;94.00;;;;;;4266582;27;20152;-57
2023/12/04 04:35:57;;;;;;;5.90;4.40;;;5.70;93.60;;;;;;4265259;27;20050;-57
2023/12/04 04:37:59;;;;;;;6.93;4.38;;;5.70;93.70;;;;;;4266011;27;20061;-58
2023/12/04 04:40:01;;;;;;;8.68;4.55;;;5.50;94.10;;;;;;4265243;27;20038;-57
2023/12/04 04:42:04;;;;;;;6.22;4.53;;;5.50;94.40;;;;;;4265106;27;20039;-58
2023/12/04 04:44:06;;;;;;;7.35;4.50;;;5.50;94.40;;;;;;4264737;27;20050;-57
2023/12/04 04:46:08;;;;;;;13.57;4.28;;;5.50;94.60;;;;;;4265239;27;20505;-57
2023/12/04 04:48:11;;;;;;;6.80;4.03;;;5.40;94.80;;;;;;4265194;27;20042;-57
2023/12/04 04:50:14;;;;;;;6.13;4.10;;;5.20;95.10;;;;;;4266553;27;20042;-59
2023/12/04 04:52:17;;;;;;;7.43;4.22;;;5.30;95.80;;;;;;4266997;27;20409;-57
2023/12/04 04:54:19;;;;;;;5.05;3.63;;;5.20;96.10;;;;;;4266767;27;20050;-57
2023/12/04 04:56:21;;;;;;;6.00;4.35;;;5.20;96.40;;;;;;4266494;27;20066;-60
2023/12/04 04:58:23;;;;;;;6.80;4.57;;;5.30;96.80;;;;;;4266138;27;20074;-57
2023/12/04 05:00:26;;;;;;;6.15;4.40;;;5.20;96.70;;;;;;4265622;27;20069;-58
2023/12/04 05:02:28;;;;;;;7.60;4.18;;;5.30;97.30;;;;;;4265288;27;20046;-58
2023/12/04 05:04:31;;;;;;;5.95;4.03;;;5.30;97.40;;;;;;4265170;27;20046;-58
2023/12/04 05:06:33;;;;;;;8.57;4.32;;;5.30;97.20;;;;;;4268991;27;20597;-57
2023/12/04 05:08:38;;;;;;;6.25;3.90;;;5.40;97.60;;;;;;4271216;27;20064;-57
2023/12/04 05:10:40;;;;;;;5.55;3.47;;;5.30;97.60;;;;;;4271909;27;20093;-56
2023/12/04 05:12:42;;;;;;;7.47;4.45;;;5.30;97.70;;;;;;4272214;27;20144;-55
2023/12/04 05:14:44;;;;;;;6.75;4.32;;;5.30;97.60;;;;;;4270019;27;20064;-55
2023/12/04 05:16:46;;;;;;;6.75;4.20;;;5.30;98.00;;;;;;4269766;27;20058;-56
2023/12/04 05:18:48;;;;;;;10.57;5.38;;;5.30;98.00;;;;;;4269443;27;20066;-54
2023/12/04 05:20:51;;;;;;;8.82;4.25;;;5.30;97.60;;;;;;4269494;27;20129;-55
2023/12/04 05:22:53;;;;;;;6.90;3.97;;;5.30;98.20;;;;;;4269250;27;20155;-57
2023/12/04 05:24:57;;;;;;;5.65;4.10;;;5.10;97.90;;;;;;4268362;27;20049;-54
2023/12/04 05:26:59;;;;;;;8.52;4.32;;;5.10;98.80;;;;;;4268315;27;20050;-55
2023/12/04 05:29:01;;;;;;;6.07;3.70;;;5.20;98.90;;;;;;4267946;27;20127;-55
2023/12/04 05:31:05;;;;;;;7.18;4.50;;;5.20;98.80;;;;;;4268474;27;20043;-55
2023/12/04 05:33:07;;;;;;;7.20;4.40;;;5.20;98.80;;;;;;4268191;27;20114;-55
2023/12/04 05:35:10;;;;;;;8.63;4.00;;;5.20;98.90;;;;;;4268038;27;20070;-57
2023/12/04 05:37:12;;;;;;;5.47;3.88;;;5.20;99.00;;;;;;4268295;27;20472;-57
2023/12/04 05:39:14;;;;;;;6.85;4.15;;;5.10;99.60;;;;;;4267751;27;20043;-57
2023/12/04 05:41:19;;;;;;;8.65;4.63;;;5.10;99.70;;;;;;4269040;27;20055;-57
2023/12/04 05:43:21;;;;;;;6.70;4.32;;;5.10;99.50;;;;;;4268434;27;20042;-53
2023/12/04 05:45:23;;;;;;;8.68;4.63;;;5.20;99.60;;;;;;4268264;27;20165;-56
2023/12/04 05:47:25;;;;;;;6.93;4.22;;;5.10;99.40;;;;;;4268471;27;20408;-54
2023/12/04 05:49:30;;;;;;;6.68;4.05;;;5.10;99.60;;;;;;4271681;27;20038;-54
2023/12/04 05:51:33;;;;;;;7.43;4.07;;;5.20;99.50;;;;;;4270749;27;20043;-54
2023/12/04 05:53:37;;;;;;;3.63;2.85;;;5.20;99.60;;;;;;4268677;27;20079;-59
2023/12/04 05:55:40;;;;;;;6.20;4.03;;;5.20;99.70;;;;;;4250107;27;20062;-57
2023/12/04 05:57:43;;;;;;;6.78;3.95;;;5.10;99.90;;;;;;4268864;27;20050;-57
2023/12/04 05:59:45;;;;;;;5.10;3.78;;;5.10;99.90;;;;;;4269793;27;20409;-58
2023/12/04 06:01:48;;;;;;;9.75;4.28;;;5.20;99.90;;;;;;4270330;27;20059;-56
2023/12/04 06:03:50;;;;;;;6.88;4.40;;;5.10;99.90;;;;;;4269389;27;20494;-59
2023/12/04 06:05:52;;;;;;;5.97;4.20;;;5.20;99.90;;;;;;4250846;27;20040;-58
2023/12/04 06:07:58;;;;;;;4.80;3.60;;;5.10;99.90;;;;;;4268816;27;20042;-58
2023/12/04 06:10:00;;;;;;;6.18;3.90;;;5.10;99.90;;;;;;4269644;27;20050;-59
2023/12/04 06:12:07;;;;;;;6.60;4.03;;;5.10;99.90;;;;;;4269138;27;20083;-56
2023/12/04 06:14:13;;;;;;;6.90;3.88;;;5.10;99.90;;;;;;4269506;27;20386;-57
2023/12/04 06:16:15;;;;;;;5.18;3.53;;;5.10;99.90;;;;;;4269433;27;20047;-57
2023/12/04 06:18:17;;;;;;;7.40;4.38;;;5.10;99.90;;;;;;4270185;27;20068;-56
2023/12/04 06:20:19;;;;;;;6.18;3.70;;;5.10;99.90;;;;;;4270089;27;20046;-57
2023/12/04 06:22:22;;;;;;;5.75;3.58;;;5.10;99.90;;;;;;4269086;27;20066;-66
2023/12/04 06:24:25;;;;;;;7.25;3.60;;;5.10;99.90;;;;;;4268164;27;20127;-57
2023/12/04 06:26:29;;;;;;;6.72;3.72;;;5.10;99.90;;;;;;4267623;27;20066;-57
2023/12/04 06:28:32;;;;;;;3.35;2.58;;;5.00;99.90;;;;;;4270549;27;20524;-57
2023/12/04 06:30:36;;;;;;;6.60;3.38;;;5.00;99.90;;;;;;4270890;27;20074;-57
2023/12/04 06:32:39;;;;;;;3.80;2.58;;;5.00;99.90;;;;;;4248940;27;20051;-57
2023/12/04 06:34:42;;;;;;;8.02;3.42;;;5.10;99.90;;;;;;4267260;27;20073;-58
2023/12/04 06:36:44;;;;;;;5.18;3.50;;;5.20;99.90;;;;;;4267618;27;20075;-57
2023/12/04 06:38:51;;;;;;;7.75;3.20;;;5.20;99.90;;;;;;4249038;27;20337;-59
2023/12/04 06:40:55;;;;;;;5.80;3.50;;;5.20;99.90;;;;;;4249908;27;20051;-58
2023/12/04 06:42:57;;;;;;;4.05;2.88;;;5.20;99.90;;;;;;4250210;27;20051;-56
2023/12/04 06:45:00;;;;;;;5.43;3.42;;;5.20;99.90;;;;;;4251901;27;20104;-60
2023/12/04 06:47:07;;;;;;;4.32;3.22;;;5.20;99.90;;;;;;4251662;27;20098;-57
2023/12/04 06:49:11;;;;;;;7.03;4.03;;;5.10;99.90;;;;;;4248403;27;20084;-55
2023/12/04 06:51:13;;;;;;;5.72;2.83;;;5.10;99.90;;;;;;4249484;27;20447;-55
2023/12/04 06:53:15;;;;;;;7.40;3.63;;;5.10;99.90;;;;;;4249156;27;20070;-55
2023/12/04 06:55:17;;;;;;;9.95;3.50;;;5.10;99.90;;;;;;4248883;27;20047;-61
2023/12/04 06:57:21;;;;;;;6.55;3.47;;;5.10;99.90;;;;;;4249984;27;20147;-55
2023/12/04 06:59:23;;;;;;;6.22;3.55;;;5.10;99.90;;;;;;4249820;27;20051;-54
2023/12/04 07:01:25;;;;;;;9.60;3.38;;;5.10;99.90;;;;;;4249588;27;20134;-55
2023/12/04 07:03:29;;;;;;;4.22;3.20;;;5.20;99.90;;;;;;4248896;27;20047;-55
2023/12/04 07:05:31;;;;;;;6.68;3.05;;;5.20;99.90;;;;;;4249165;27;20067;-56
2023/12/04 07:07:33;;;;;;;6.85;3.42;;;5.20;99.90;;;;;;4248876;27;20047;-55
2023/12/04 07:09:35;;;;;;;6.25;3.67;;;5.20;99.90;;;;;;4248947;27;20058;-56
2023/12/04 07:11:37;;;;;;;4.90;3.20;;;5.20;99.90;;;;;;4248784;27;20043;-56
2023/12/04 07:13:41;;;;;;;5.13;3.53;;;5.20;99.90;;;;;;4248775;27;20067;-62
2023/12/04 07:15:43;;;;;;;6.63;3.63;;;5.20;99.90;;;;;;4248721;27;20111;-55
2023/12/04 07:17:45;;;;;;;5.10;3.70;;;5.10;99.90;;;;;;4248893;27;20144;-54
2023/12/04 07:19:49;;;;;;;4.95;3.65;;;5.20;99.90;;;;;;4248942;27;20069;-55
2023/12/04 07:21:51;;;;;;;6.28;3.80;;;5.20;99.90;;;;;;4249262;27;20055;-56
2023/12/04 07:23:53;;;;;;;6.75;3.35;;;5.20;99.90;;;;;;4248270;27;20128;-55
2023/12/04 07:25:55;;;;;;;9.50;4.00;;;5.20;99.90;;;;;;4247782;27;20047;-55
2023/12/04 07:28:00;;;;;;;5.72;3.65;;;5.20;99.90;;;;;;4249644;27;20043;-56
2023/12/04 07:30:03;;;;;;;6.78;3.83;;;5.30;99.90;;;;;;4249529;27;20142;-61
2023/12/04 07:32:06;;;;;;;7.10;4.07;;;5.30;99.90;;;;;;4249960;27;20514;-56
2023/12/04 07:34:09;;;;;;;5.35;3.55;;;5.30;99.90;;;;;;4248471;27;20148;-55
2023/12/04 07:36:13;;;;;;;9.13;5.18;;;5.40;99.90;;;;;;4250074;27;20049;-56
2023/12/04 07:38:15;;;;;;;7.65;3.67;;;5.30;99.90;;;;;;4249945;27;20047;-55
2023/12/04 07:40:17;;;;;;;7.50;4.35;;;5.30;99.90;;;;;;4265328;27;20114;-55
2023/12/04 07:42:19;;;;;;;7.65;4.53;;;5.20;99.90;;;;;;4265474;27;20078;-55
2023/12/04 07:44:21;;;;;;;5.20;3.42;;;5.20;99.90;;;;;;4265354;27;20154;-55
2023/12/04 07:46:23;;;;;;;5.20;3.83;;;5.30;99.90;;;;;;4265396;27;20073;-55
2023/12/04 07:48:27;;;;;;;5.28;3.83;;;5.30;99.90;;;;;;4265474;27;20070;-55
2023/12/04 07:50:30;;;;;;;5.20;3.75;;;5.30;99.90;;;;;;4265351;27;20504;-55
2023/12/04 07:52:33;;;;;;;7.47;3.80;;;5.20;99.90;;;;;;4265167;27;20135;-56
2023/12/04 07:54:35;;;;;;;7.93;4.00;;;5.30;99.90;;;;;;4265321;27;20053;-56
2023/12/04 07:56:37;;;;;;;6.60;3.90;;;5.30;99.90;;;;;;4265478;27;20545;-56
2023/12/04 07:58:39;;;;;;;9.85;3.20;;;5.30;99.90;;;;;;4265211;27;20046;-55
2023/12/04 08:00:41;;;;;;;6.82;3.75;;;5.30;99.90;;;;;;4265258;27;20304;-56
2023/12/04 08:02:45;;;;;;;5.65;3.70;;;5.30;99.90;;;;;;4265563;27;20047;-56
2023/12/04 08:04:47;;;;;;;6.18;3.78;;;5.30;99.90;;;;;;4265337;27;20042;-56
2023/12/04 08:06:50;;;;;;;5.68;3.90;;;5.40;99.90;;;;;;4264892;27;20058;-55
2023/12/04 08:08:54;;;;;;;4.60;3.60;;;5.30;99.90;;;;;;4265007;27;20130;-56
2023/12/04 08:10:56;;;;;;;4.20;2.33;;;5.30;99.90;;;;;;4265686;27;20046;-55
2023/12/04 08:12:59;;;;;;;4.65;3.42;;;5.40;99.90;;;;;;4265896;27;20086;-56
2023/12/04 08:15:04;;;;;;;8.57;3.80;;;5.40;99.90;;;;;;4265490;27;20043;-55
2023/12/04 08:17:06;;;;;;;5.22;3.35;;;5.50;99.90;;;;;;4264896;27;20122;-56
2023/12/04 08:19:08;;;;;;;5.15;3.42;;;5.50;99.90;;;;;;4265134;27;20127;-56
2023/12/04 08:21:11;;;;;;;6.00;3.60;;;5.60;99.90;;;;;;4265016;27;20482;-54
2023/12/04 08:23:13;;;;;;;5.35;3.45;;;5.60;99.90;;;;;;4264926;27;20047;-56
2023/12/04 08:25:17;;;;;;;5.72;3.75;;;5.70;99.90;;;;;;4266914;27;20043;-55
2023/12/04 08:27:19;;;;;;;5.65;3.70;;;5.70;99.90;;;;;;4266683;27;20057;-57
2023/12/04 08:29:22;;;;;;;7.60;3.53;;;5.70;99.90;;;;;;4266968;27;20165;-56
2023/12/04 08:31:24;;;;;;;5.53;3.10;;;5.70;99.90;;;;;;4265619;27;20039;-56
2023/12/04 08:33:26;;;;;;;6.10;3.05;;;5.70;99.90;;;;;;4265929;27;20051;-56
2023/12/04 08:35:29;;;;;;;6.25;3.17;;;5.80;99.90;;;;;;4265995;27;20038;-56
2023/12/04 08:37:31;;;;;;;6.22;3.70;;;5.80;99.90;;;;;;4265044;27;20046;-56
2023/12/04 08:39:33;;;;;;;6.88;3.65;;;5.80;99.90;;;;;;4264209;27;20047;-54
2023/12/04 08:41:38;;;;;;;10.68;4.07;;;5.70;99.90;;;;;;4264808;27;20057;-56
2023/12/04 08:43:46;;;;;;;8.15;3.95;;;5.70;99.90;;;;;;4265018;27;20046;-55
2023/12/04 08:45:48;;;;;;;6.75;3.25;;;5.70;99.90;;;;;;4265285;27;20046;-56
2023/12/04 08:47:50;;;;;;;9.18;3.60;;;5.70;99.90;;;;;;4264472;27;20047;-55
2023/12/04 08:49:52;;;;;;;4.93;3.25;;;5.80;99.90;;;;;;4264567;27;20511;-56
2023/12/04 08:51:54;;;;;;;8.15;3.15;;;5.90;99.90;;;;;;4264547;27;20066;-55
2023/12/04 08:53:56;;;;;;;7.75;3.90;;;5.90;99.90;;;;;;4264863;27;20043;-55
2023/12/04 08:55:58;;;;;;;9.13;3.38;;;5.80;99.90;;;;;;4264395;27;20053;-56
2023/12/04 08:58:02;;;;;;;7.65;3.45;;;5.80;99.90;;;;;;4264453;27;20050;-55
2023/12/04 09:00:05;;;;;;;6.10;3.03;;;5.90;99.90;;;;;;4264462;27;20045;-54
2023/12/04 09:02:07;;;;;;;9.48;3.50;;;5.90;99.90;;;;;;4265600;27;20065;-56
2023/12/04 09:04:14;;;;;;;4.80;3.13;;;5.90;99.90;;;;;;4265306;27;20047;-56
2023/12/04 09:06:16;;;;;;;7.55;3.30;;;5.90;99.90;;;;;;4264353;27;20065;-55
2023/12/04 09:08:18;;;;;;;6.18;3.08;;;6.00;99.90;;;;;;4264569;27;20449;-56
2023/12/04 09:10:37;;;;;;;4.65;2.90;;;6.00;99.90;;;;;;4249999;27;20047;-56
2023/12/04 09:12:59;;;;;;;8.15;3.00;;;6.10;99.90;;;;;;4266606;27;20039;-65
2023/12/04 09:15:04;;;;;;;7.43;2.95;;;6.10;99.90;;;;;;4265799;27;20059;-55
2023/12/04 09:17:07;;;;;;;4.22;2.88;;;6.10;99.90;;;;;;4265511;27;20046;-56
2023/12/04 09:19:10;;;;;;;5.40;2.90;;;6.10;99.90;;;;;;4265219;27;20043;-62
2023/12/04 09:21:12;;;;;;;10.32;3.20;;;6.30;99.90;;;;;;4264724;27;20053;-60
2023/12/04 09:23:14;;;;;;;5.30;2.80;;;6.20;99.90;;;;;;4247064;28;20465;-57
2023/12/04 09:25:17;;;;;;;11.13;3.15;;;6.30;99.90;;;;;;4264974;27;20054;-54
2023/12/04 09:27:19;;;;;;;4.40;2.70;;;6.30;99.90;;;;;;4264924;27;20087;-55
2023/12/04 09:29:23;;;;;;;7.18;2.83;;;6.30;99.90;;;;;;4264894;27;20533;-56
2023/12/04 09:31:28;;;;;;;4.55;2.78;;;6.30;99.90;;;;;;4264640;27;20035;-58
2023/12/04 09:33:30;;;;;;;7.55;3.58;;;6.30;99.90;;;;;;4264481;27;20066;-56
2023/12/04 09:35:33;;;;;;;7.38;2.70;;;6.30;99.90;;;;;;4264026;27;20046;-56
2023/12/04 09:37:35;;;;;;;5.07;3.05;;;6.30;99.90;;;;;;4264402;27;20038;-55
2023/12/04 09:39:37;;;;;;;6.95;2.90;;;6.40;99.90;;;;;;4264084;27;20067;-55
2023/12/04 09:41:41;;;;;;;7.18;3.38;;;6.40;99.90;;;;;;4264310;27;20069;-54
2023/12/04 09:43:44;;;;;;;3.65;2.38;;;6.40;99.90;;;;;;4264449;27;20557;-55
2023/12/04 09:45:46;;;;;;;5.88;2.72;;;6.40;99.90;;;;;;4264091;27;20042;-55
2023/12/04 09:47:50;;;;;;;7.70;3.00;;;6.50;99.90;;;;;;4264491;27;20065;-55
2023/12/04 09:49:53;;;;;;;4.55;2.35;;;6.50;99.90;;;;;;4264023;27;20186;-57
2023/12/04 09:51:58;;;;;;;5.88;2.63;;;6.50;99.90;;;;;;4264707;27;20047;-55
2023/12/04 09:54:06;;;;;;;5.40;2.40;;;6.50;99.90;;;;;;4249198;27;20399;-63
2023/12/04 09:56:09;;;;;;;4.78;2.63;;;6.60;99.90;;;;;;4266838;27;20248;-56
2023/12/04 09:58:14;;;;;;;4.80;2.72;;;6.50;99.90;;;;;;4267496;27;20047;-56
2023/12/04 10:00:17;;;;;;;5.90;3.00;;;6.60;99.90;;;;;;4267574;27;20081;-55
2023/12/04 10:02:21;;;;;;;6.25;2.85;;;6.70;99.90;;;;;;4267519;27;20051;-55
2023/12/04 10:04:25;;;;;;;5.50;3.00;;;6.70;99.90;;;;;;4268431;27;20047;-56
2023/12/04 10:06:28;;;;;;;7.15;2.90;;;6.70;99.90;;;;;;4269373;27;20423;-55
2023/12/04 10:08:32;;;;;;;5.95;3.88;;;6.70;99.90;;;;;;4249997;27;20049;-56
2023/12/04 10:10:34;;;;;;;4.95;2.80;;;6.80;99.90;;;;;;4267156;27;20076;-55
2023/12/04 10:12:37;;;;;;;5.95;2.60;;;6.80;99.90;;;;;;4267259;27;20043;-56
2023/12/04 10:14:39;;;;;;;5.55;3.35;;;6.80;99.90;;;;;;4267111;27;20047;-55
2023/12/04 10:16:41;;;;;;;10.57;3.50;;;6.80;99.90;;;;;;4267000;27;20413;-55
2023/12/04 10:18:44;;;;;;;6.78;2.83;;;6.90;99.90;;;;;;4266585;27;20043;-55
2023/12/04 10:20:56;;;;;;;6.55;2.88;;;6.90;99.90;;;;;;4266606;27;20046;-55
2023/12/04 10:22:59;;;;;;;5.07;2.65;;;7.00;99.90;;;;;;4266999;27;20039;-56
2023/12/04 10:25:14;;;;;;;4.28;3.03;;;7.00;99.90;;;;;;4266680;27;20099;-55
2023/12/04 10:27:17;;;;;;;3.72;1.65;;;7.00;99.90;;;;;;4266590;27;20121;-55
2023/12/04 10:29:19;;;;;;;8.35;3.20;;;7.00;99.90;;;;;;4266530;27;20046;-55
2023/12/04 10:31:23;;;;;;;4.13;2.63;;;7.10;99.90;;;;;;4266773;27;20045;-55
2023/12/04 10:33:27;;;;;;;5.70;3.00;;;7.20;99.90;;;;;;4266427;27;20450;-54
2023/12/04 10:35:31;;;;;;;4.88;2.92;;;7.30;99.90;;;;;;4266556;27;20049;-56
2023/12/04 10:37:35;;;;;;;6.82;3.50;;;7.30;99.90;;;;;;4248108;27;20119;-55
2023/12/04 10:39:46;;;;;;;;;;;7.40;99.90;;;;;;4266910;27;20296;-54
2023/12/04 10:42:00;;;;;;;5.32;2.75;;;7.40;99.90;;;;;;4266332;27;19922;-64
2023/12/04 10:44:04;;;;;;;7.22;2.90;;;7.40;99.90;;;;;;4266238;27;20043;-56
2023/12/04 10:46:12;;;;;;;9.00;3.28;;;7.50;99.90;;;;;;4266192;27;20066;-56
2023/12/04 10:48:16;;;;;;;6.20;3.08;;;7.60;99.90;;;;;;4266165;27;20042;-55
2023/12/04 10:50:18;;;;;;;7.95;3.42;;;7.60;99.90;;;;;;4266705;27;20374;-57